This is the latest recevied weather packets stored in our database for station/object IT9ITI-10. If no packets are shown the sender has not sent any weather packets the latest 10 day(s).
| Time | Temp. | Humidity | Pressure | Rain* | Wind** | Luminosity | Snow |
|---|---|---|---|---|---|---|---|
| 1777847258 | 22.78° C | 47% | 940.3 hPa | - | - | - | - |
| 1777843658 | 23.33° C | 47% | 940.1 hPa | - | - | - | - |
| 1777840058 | 23.33° C | 47% | 939.8 hPa | - | - | - | - |
| 1777836458 | 23.33° C | 47% | 939.8 hPa | - | - | - | - |
| 1777832858 | 23.33° C | 47% | 939.1 hPa | - | - | - | - |
| 1777829257 | 23.33° C | 46% | 938.8 hPa | - | - | - | - |
| 1777825657 | 25° C | 45% | 938.7 hPa | - | - | - | - |
| 1777825041 | 23.89° C | 46% | 938.5 hPa | - | - | - | - |
| 1777821330 | 23.33° C | 45% | 938.6 hPa | - | - | - | - |
| 1777817730 | 23.89° C | 45% | 938.8 hPa | - | - | - | - |
| 1777814130 | 23.89° C | 45% | 939.4 hPa | - | - | - | - |
| 1777810529 | 22.78° C | 47% | 939.9 hPa | - | - | - | - |
| 1777809959 | 22.22° C | 57% | 939.9 hPa | - | - | - | - |
| 1777808725 | 23.89° C | 45% | 940.1 hPa | - | - | - | - |
| 1777805125 | 23.89° C | 45% | 940.4 hPa | - | - | - | - |
| 1777801525 | 23.89° C | 45% | 940.8 hPa | - | - | - | - |
| 1777797925 | 23.89° C | 45% | 941 hPa | - | - | - | - |
| 1777794325 | 23.89° C | 46% | 940.8 hPa | - | - | - | - |
| 1777790733 | 23.33° C | 46% | 940.9 hPa | - | - | - | - |
| 1777790725 | 23.33° C | 46% | 940.9 hPa | - | - | - | - |
| 1777787125 | 23.33° C | 46% | 940.7 hPa | - | - | - | - |
| 1777783525 | 23.33° C | 46% | 940.4 hPa | - | - | - | - |
| 1777779925 | 23.33° C | 45% | 940.3 hPa | - | - | - | - |
| 1777776325 | 23.89° C | 45% | 940.3 hPa | - | - | - | - |
| 1777772725 | 23.89° C | 45% | 940.6 hPa | - | - | - | - |
* Rain since midnight (hover to see other rain measurements)
** Current wind speed in m/s (hover to see current wind gust speed)